Time;durP1;ratioP1;P1;durP2;ratioP2;P2;SDS_P1;SDS_P2;PMS_P1;PMS_P2;Temp;Humidity;BMP_temperature;BMP_pressure;BME280_temperature;BME280_humidity;BME280_pressure;Samples;Min_cycle;Max_cycle;Signal;HPM_P1;HPM_P2
2022/06/05 00:00:39;;;;;;;24.83;16.13;;;19.50;68.00;;;;;;5033274;28;20117;-77
2022/06/05 00:03:25;;;;;;;23.77;15.68;;;19.50;68.30;;;;;;4999196;28;20026;-77
2022/06/05 00:06:11;;;;;;;28.48;16.92;;;19.50;68.40;;;;;;5000729;28;20421;-77
2022/06/05 00:08:51;;;;;;;29.52;16.50;;;19.50;68.70;;;;;;5019410;28;20121;-77
2022/06/05 00:11:18;;;;;;;29.08;16.63;;;19.40;68.80;;;;;;5005132;28;20038;-77
2022/06/05 00:13:49;;;;;;;27.75;16.88;;;19.40;69.00;;;;;;4999923;28;20041;-77
2022/06/05 00:16:18;;;;;;;27.40;16.40;;;19.40;69.00;;;;;;5016704;28;20041;-77
2022/06/05 00:18:45;;;;;;;28.17;15.93;;;19.40;69.10;;;;;;5031669;28;20494;-76
2022/06/05 00:21:12;;;;;;;30.70;16.08;;;19.40;69.20;;;;;;5000903;28;20413;-78
2022/06/05 00:23:39;;;;;;;22.60;14.98;;;19.40;69.40;;;;;;5003539;28;20535;-77
2022/06/05 00:26:08;;;;;;;28.30;17.25;;;19.30;69.20;;;;;;4998777;28;20054;-77
2022/06/05 00:28:46;;;;;;;26.25;15.90;;;19.30;69.50;;;;;;5016063;28;20135;-77
2022/06/05 00:31:38;;;;;;;27.73;16.10;;;19.30;69.80;;;;;;5001130;28;20068;-77
2022/06/05 00:34:04;;;;;;;25.83;16.38;;;19.30;70.00;;;;;;5030544;28;20034;-77
2022/06/05 00:36:48;;;;;;;30.13;17.23;;;19.20;69.80;;;;;;4987443;28;20038;-78
2022/06/05 00:39:40;;;;;;;29.60;17.60;;;19.20;70.50;;;;;;5000084;28;20025;-77
2022/06/05 00:42:16;;;;;;;33.38;20.25;;;19.20;69.90;;;;;;5000883;28;20056;-77
2022/06/05 00:44:51;;;;;;;38.65;20.60;;;19.30;70.00;;;;;;5032723;28;20609;-77
2022/06/05 00:47:25;;;;;;;36.67;21.52;;;19.20;70.00;;;;;;5001068;28;20467;-77
2022/06/05 00:49:52;;;;;;;34.22;19.75;;;19.20;70.10;;;;;;4998147;28;20034;-77
2022/06/05 00:52:20;;;;;;;38.30;19.50;;;19.20;70.20;;;;;;4998947;28;20041;-77
2022/06/05 00:54:47;;;;;;;32.05;19.02;;;19.20;70.30;;;;;;5031649;28;20053;-77
2022/06/05 00:57:15;;;;;;;34.00;19.83;;;19.20;70.30;;;;;;4999490;28;20529;-76
2022/06/05 00:59:43;;;;;;;32.88;19.17;;;19.20;70.30;;;;;;4999181;28;20123;-77
2022/06/05 01:02:11;;;;;;;28.75;18.00;;;19.10;70.30;;;;;;5000631;28;20117;-77
2022/06/05 01:04:41;;;;;;;29.73;18.65;;;19.10;70.50;;;;;;4999837;28;20033;-77
2022/06/05 01:07:07;;;;;;;33.60;18.77;;;19.10;70.50;;;;;;5001432;28;20124;-77
2022/06/05 01:09:34;;;;;;;32.83;18.33;;;19.00;70.30;;;;;;5032028;28;20050;-77
2022/06/05 01:12:20;;;;;;;29.65;15.82;;;19.00;70.50;;;;;;4999971;28;20052;-76
2022/06/05 01:15:01;;;;;;;;;;;19.00;71.50;;;;;;4999021;28;20052;-78
2022/06/05 01:17:53;;;;;;;28.50;16.58;;;19.00;72.00;;;;;;5000899;28;19964;-77
2022/06/05 01:20:34;;;;;;;30.35;16.75;;;18.90;71.90;;;;;;4999137;28;20034;-77
2022/06/05 01:23:37;;;;;;;27.45;16.90;;;18.90;71.50;;;;;;4998860;28;20045;-77
2022/06/05 01:26:09;;;;;;;26.73;15.80;;;18.90;71.80;;;;;;5004120;28;20059;-76
2022/06/05 01:28:44;;;;;;;27.52;15.65;;;18.90;71.80;;;;;;5002500;28;20034;-76
2022/06/05 01:31:23;;;;;;;23.88;14.65;;;18.90;72.00;;;;;;5036598;28;20038;-77
2022/06/05 01:34:08;;;;;;;26.00;15.13;;;18.90;71.90;;;;;;5036246;28;20053;-77
2022/06/05 01:36:45;;;;;;;26.52;14.98;;;18.90;71.60;;;;;;5003225;28;20446;-77
2022/06/05 01:39:19;;;;;;;26.23;14.15;;;18.90;71.40;;;;;;5006428;28;20037;-77
2022/06/05 01:41:58;;;;;;;25.23;15.60;;;18.90;71.10;;;;;;5004198;28;20026;-77
2022/06/05 01:44:36;;;;;;;23.52;15.23;;;19.00;71.00;;;;;;5000952;28;20077;-77
2022/06/05 01:47:13;;;;;;;23.27;15.38;;;19.00;71.00;;;;;;5035298;28;20042;-77
2022/06/05 01:49:56;;;;;;;25.17;15.90;;;19.00;71.20;;;;;;5004486;28;20041;-77
2022/06/05 01:52:28;;;;;;;28.30;16.52;;;19.00;71.10;;;;;;4989145;28;20543;-77
2022/06/05 01:55:23;;;;;;;28.15;16.23;;;19.00;71.10;;;;;;5004593;28;20026;-77
2022/06/05 01:57:52;;;;;;;23.67;15.20;;;19.00;71.20;;;;;;5034480;28;20038;-76
2022/06/05 02:00:21;;;;;;;32.78;16.02;;;18.90;71.20;;;;;;5002057;28;20045;-77
2022/06/05 02:03:01;;;;;;;27.05;15.23;;;18.90;71.30;;;;;;5019194;28;20497;-77
2022/06/05 02:05:35;;;;;;;26.88;15.95;;;19.00;71.30;;;;;;5000963;28;20033;-77
2022/06/05 02:08:12;;;;;;;25.63;14.95;;;19.00;71.20;;;;;;5034667;28;20045;-77
2022/06/05 02:10:51;;;;;;;26.75;14.93;;;19.00;71.30;;;;;;5004051;28;20034;-77
2022/06/05 02:13:17;;;;;;;29.85;15.85;;;19.00;71.00;;;;;;5005585;28;20040;-77
2022/06/05 02:15:43;;;;;;;25.02;15.40;;;19.00;71.10;;;;;;4989117;28;20063;-77
2022/06/05 02:18:11;;;;;;;23.92;15.98;;;19.00;71.30;;;;;;5035203;28;20038;-77
2022/06/05 02:20:37;;;;;;;31.42;15.73;;;19.10;71.10;;;;;;5004267;28;20041;-76
2022/06/05 02:23:04;;;;;;;29.08;17.15;;;19.20;70.80;;;;;;5000737;28;20046;-76
2022/06/05 02:25:31;;;;;;;30.80;17.15;;;19.30;70.50;;;;;;5004368;28;20132;-77
2022/06/05 02:27:59;;;;;;;23.75;15.75;;;19.50;70.40;;;;;;5001825;28;20034;-77
2022/06/05 02:30:58;;;;;;;27.73;15.82;;;19.60;70.90;;;;;;5000260;28;20405;-78
2022/06/05 02:33:34;;;;;;;24.33;14.95;;;19.70;70.90;;;;;;4998166;28;20091;-77
2022/06/05 02:36:26;;;;;;;22.73;15.30;;;19.80;71.00;;;;;;5001676;28;20563;-77
2022/06/05 02:38:52;;;;;;;22.55;15.38;;;20.00;70.20;;;;;;5020570;28;20092;-78
2022/06/05 02:41:36;;;;;;;27.40;15.55;;;20.10;69.50;;;;;;5023747;28;20520;-78
2022/06/05 02:44:30;;;;;;;27.48;14.80;;;20.30;69.20;;;;;;5022316;28;20049;-77
2022/06/05 02:47:06;;;;;;;23.10;14.85;;;20.50;69.10;;;;;;5025467;28;20045;-77
2022/06/05 02:49:45;;;;;;;23.40;14.68;;;20.70;68.60;;;;;;5024025;28;20417;-78
2022/06/05 02:52:11;;;;;;;25.00;15.23;;;20.70;68.00;;;;;;5021352;28;20042;-78
2022/06/05 02:55:11;;;;;;;25.55;14.60;;;20.80;68.00;;;;;;5042174;28;20048;-78
2022/06/05 02:57:37;;;;;;;21.20;13.75;;;20.90;67.70;;;;;;5053941;28;20029;-77
2022/06/05 03:00:09;;;;;;;22.90;14.57;;;21.00;67.80;;;;;;5021138;28;20036;-77
2022/06/05 03:05:20;;;;;;;24.07;15.37;;;21.10;66.90;;;;;;5022550;28;20064;-78
2022/06/05 03:07:46;;;;;;;23.75;15.27;;;21.10;66.80;;;;;;5019136;28;20412;-78
2022/06/05 03:10:13;;;;;;;27.98;15.35;;;21.00;67.00;;;;;;5020519;28;20034;-78
2022/06/05 03:12:38;;;;;;;24.20;15.15;;;20.90;67.40;;;;;;5022757;28;20038;-78
2022/06/05 03:15:06;;;;;;;22.20;14.40;;;20.90;67.10;;;;;;5021626;28;20083;-78
2022/06/05 03:17:32;;;;;;;26.05;15.10;;;20.90;67.10;;;;;;5008569;28;20033;-78
2022/06/05 03:19:58;;;;;;;23.23;14.63;;;20.80;66.80;;;;;;5008317;28;20584;-79
2022/06/05 03:22:26;;;;;;;22.23;13.75;;;20.90;66.90;;;;;;5007740;28;20519;-78
2022/06/05 03:24:52;;;;;;;18.98;13.15;;;21.10;66.90;;;;;;5053055;28;20038;-78
2022/06/05 03:27:19;;;;;;;20.67;13.13;;;21.20;67.00;;;;;;5020679;28;20091;-79
2022/06/05 03:29:46;;;;;;;14.82;12.38;;;21.40;67.60;;;;;;5054484;28;20057;-77
2022/06/05 03:32:12;;;;;;;15.65;11.68;;;21.60;67.20;;;;;;5023845;28;20509;-81
2022/06/05 03:34:38;;;;;;;16.88;11.15;;;21.80;66.70;;;;;;5007983;28;20479;-81
2022/06/05 03:37:04;;;;;;;20.60;11.48;;;21.90;67.50;;;;;;5013376;28;20041;-81
2022/06/05 03:39:33;;;;;;;15.95;11.32;;;22.00;67.30;;;;;;5015201;28;20503;-81
2022/06/05 03:41:59;;;;;;;15.75;11.13;;;22.20;66.90;;;;;;5015181;28;20029;-81
2022/06/05 03:44:26;;;;;;;17.45;10.82;;;22.30;66.50;;;;;;5029792;28;20052;-81
2022/06/05 03:46:52;;;;;;;14.02;10.30;;;22.40;66.90;;;;;;5009179;28;20064;-80
2022/06/05 03:49:18;;;;;;;12.63;10.00;;;22.50;66.20;;;;;;5025633;28;20048;-80
2022/06/05 03:51:46;;;;;;;14.88;10.00;;;22.70;66.20;;;;;;5021073;28;20038;-81
2022/06/05 03:54:12;;;;;;;14.77;9.25;;;22.80;65.90;;;;;;5025894;28;20508;-81
2022/06/05 03:56:39;;;;;;;13.18;8.98;;;23.00;65.40;;;;;;5019190;28;20045;-80
2022/06/05 03:59:05;;;;;;;14.18;8.63;;;23.00;64.90;;;;;;5020209;28;20120;-79
2022/06/05 04:01:31;;;;;;;13.70;8.68;;;23.10;64.20;;;;;;5025278;28;20041;-79
2022/06/05 04:03:57;;;;;;;17.33;8.25;;;23.10;64.30;;;;;;5008177;28;20025;-80
2022/06/05 04:06:29;;;;;;;14.38;8.13;;;23.00;63.30;;;;;;5019974;28;20034;-79
2022/06/05 04:09:01;;;;;;;12.40;7.93;;;22.90;62.80;;;;;;5022672;28;20063;-80
2022/06/05 04:11:29;;;;;;;13.07;7.35;;;22.80;62.80;;;;;;5054553;28;20037;-80
2022/06/05 04:13:56;;;;;;;11.27;7.18;;;22.70;62.20;;;;;;5019773;28;20559;-80
2022/06/05 04:16:25;;;;;;;13.93;7.53;;;22.50;61.90;;;;;;5020250;28;20037;-80
2022/06/05 04:18:52;;;;;;;11.75;6.68;;;22.50;61.90;;;;;;5021744;28;20042;-79
2022/06/05 04:21:21;;;;;;;10.55;7.50;;;22.40;61.80;;;;;;5038383;28;20026;-80
2022/06/05 04:23:48;;;;;;;12.98;7.45;;;22.30;61.80;;;;;;4991949;28;20030;-78
2022/06/05 04:26:18;;;;;;;13.82;7.13;;;22.30;62.30;;;;;;5009897;28;20499;-79
2022/06/05 04:28:44;;;;;;;12.07;7.22;;;22.20;62.40;;;;;;5004388;28;20097;-78
2022/06/05 04:31:20;;;;;;;18.17;6.60;;;22.20;62.80;;;;;;5001426;28;20037;-78
2022/06/05 04:33:47;;;;;;;13.52;7.10;;;22.20;62.70;;;;;;4987873;28;20200;-78
2022/06/05 04:36:14;;;;;;;13.38;6.63;;;22.20;63.30;;;;;;4987341;28;20421;-79
2022/06/05 04:38:40;;;;;;;9.98;6.20;;;22.30;63.40;;;;;;4999342;28;20033;-78
2022/06/05 04:41:07;;;;;;;9.77;5.68;;;22.40;63.80;;;;;;5017200;28;20050;-80
2022/06/05 04:43:33;;;;;;;8.35;5.70;;;22.50;63.00;;;;;;5001601;28;20386;-80
2022/06/05 04:45:59;;;;;;;8.38;5.90;;;22.40;62.80;;;;;;5001619;28;20037;-80
2022/06/05 04:48:25;;;;;;;7.72;5.72;;;22.40;62.70;;;;;;5002344;28;20037;-79
2022/06/05 04:50:51;;;;;;;10.10;5.35;;;22.50;62.80;;;;;;5006015;28;20493;-80
2022/06/05 04:53:17;;;;;;;8.45;4.93;;;22.50;62.20;;;;;;5002362;28;20084;-78
2022/06/05 04:55:43;;;;;;;6.45;4.50;;;22.50;61.60;;;;;;5003399;28;20073;-79
2022/06/05 04:58:09;;;;;;;6.20;4.22;;;22.70;62.20;;;;;;4999389;28;20125;-78
2022/06/05 05:00:35;;;;;;;9.23;4.32;;;22.80;61.90;;;;;;4999087;28;20038;-81
2022/06/05 05:03:01;;;;;;;7.63;4.47;;;22.70;61.40;;;;;;5004772;28;20040;-81
2022/06/05 05:05:26;;;;;;;9.50;4.82;;;22.70;61.90;;;;;;4995971;28;20035;-80
2022/06/05 05:07:52;;;;;;;7.63;5.10;;;22.60;61.20;;;;;;5001080;28;20057;-79
2022/06/05 05:10:18;;;;;;;7.80;5.10;;;22.50;61.30;;;;;;5030677;28;20042;-80
2022/06/05 05:12:45;;;;;;;8.10;5.03;;;22.40;61.80;;;;;;5001582;28;20504;-77
2022/06/05 05:15:11;;;;;;;9.20;5.43;;;22.30;62.10;;;;;;4999428;28;20062;-76
2022/06/05 05:17:37;;;;;;;11.15;6.57;;;22.30;63.00;;;;;;4999474;28;20485;-76
2022/06/05 05:20:04;;;;;;;9.57;6.60;;;22.20;63.10;;;;;;4999695;28;20026;-77
2022/06/05 05:22:36;;;;;;;12.57;6.00;;;22.20;63.40;;;;;;5000051;28;20037;-77
2022/06/05 05:25:02;;;;;;;11.63;6.43;;;22.20;64.10;;;;;;4999439;28;20070;-78
2022/06/05 05:27:28;;;;;;;11.63;6.45;;;22.10;63.80;;;;;;4999024;28;20045;-77
2022/06/05 05:29:54;;;;;;;9.90;6.30;;;22.10;64.70;;;;;;4998629;28;20037;-77
2022/06/05 05:32:21;;;;;;;9.77;6.07;;;22.00;64.60;;;;;;4996843;28;20598;-77
2022/06/05 05:34:46;;;;;;;7.82;5.40;;;22.00;64.90;;;;;;4996088;28;20062;-76
2022/06/05 05:37:12;;;;;;;7.97;5.93;;;22.00;65.60;;;;;;4999949;28;20065;-76
2022/06/05 05:42:22;;;;;;;7.55;4.72;;;21.80;65.80;;;;;;4999563;28;20035;-78
2022/06/05 05:44:51;;;;;;;10.93;7.20;;;21.70;66.40;;;;;;5015180;28;20400;-76
2022/06/05 05:47:19;;;;;;;14.77;7.93;;;21.70;67.70;;;;;;4998276;28;20646;-80
2022/06/05 05:49:45;;;;;;;9.77;6.90;;;21.70;68.90;;;;;;4998932;28;20529;-77
2022/06/05 05:52:11;;;;;;;8.70;5.78;;;21.60;69.30;;;;;;4998212;28;20054;-76
2022/06/05 05:54:38;;;;;;;10.80;5.97;;;21.50;69.20;;;;;;5002807;28;20327;-77
2022/06/05 05:57:05;;;;;;;6.50;4.85;;;21.40;69.10;;;;;;4999909;28;20528;-78
2022/06/05 05:59:31;;;;;;;5.03;4.43;;;21.40;69.30;;;;;;4999532;28;20130;-78
2022/06/05 06:01:57;;;;;;;5.75;4.28;;;21.20;69.20;;;;;;4998144;28;20263;-77
2022/06/05 06:04:23;;;;;;;6.03;4.10;;;21.20;69.60;;;;;;5000093;28;20121;-77
2022/06/05 06:06:49;;;;;;;5.72;4.03;;;21.20;70.00;;;;;;5030908;28;20031;-76
2022/06/05 06:09:16;;;;;;;6.22;3.75;;;21.10;70.00;;;;;;4999858;28;20096;-76
2022/06/05 06:11:42;;;;;;;7.32;4.10;;;21.00;70.20;;;;;;5001663;28;20036;-76
2022/06/05 06:14:08;;;;;;;4.75;3.55;;;20.90;70.20;;;;;;5002702;28;20049;-76
2022/06/05 06:16:35;;;;;;;5.43;3.75;;;20.80;70.60;;;;;;5033601;28;20033;-77
2022/06/05 06:19:02;;;;;;;3.88;3.47;;;20.70;70.40;;;;;;5001741;28;20030;-77
2022/06/05 06:21:28;;;;;;;4.93;3.67;;;20.50;71.60;;;;;;5005568;28;20056;-76
2022/06/05 06:23:54;;;;;;;5.30;3.80;;;20.40;71.40;;;;;;5003539;28;20113;-78
2022/06/05 06:26:20;;;;;;;5.00;3.90;;;20.40;71.70;;;;;;4985312;28;20194;-77
2022/06/05 06:28:46;;;;;;;5.22;3.78;;;20.30;72.10;;;;;;5000998;28;20061;-77
2022/06/05 06:31:16;;;;;;;8.25;3.60;;;20.20;72.50;;;;;;5002363;28;20084;-77
2022/06/05 06:33:43;;;;;;;4.53;3.25;;;20.20;72.30;;;;;;5002859;28;20117;-76
2022/06/05 06:36:13;;;;;;;4.57;4.13;;;20.10;72.50;;;;;;5003401;28;20030;-77
2022/06/05 06:38:40;;;;;;;4.10;3.63;;;20.10;72.10;;;;;;5034361;28;20050;-77
2022/06/05 06:41:13;;;;;;;5.97;3.95;;;20.00;72.00;;;;;;5001250;28;20058;-76
2022/06/05 06:43:40;;;;;;;6.88;3.97;;;19.90;71.90;;;;;;5001690;28;20048;-76
2022/06/05 06:46:07;;;;;;;5.70;4.03;;;19.80;71.60;;;;;;5000559;28;20138;-76
2022/06/05 06:48:34;;;;;;;5.20;3.65;;;19.80;72.00;;;;;;5003532;28;20579;-76
2022/06/05 06:51:01;;;;;;;6.40;3.90;;;19.80;72.30;;;;;;5003173;28;20138;-76
2022/06/05 06:53:28;;;;;;;6.68;3.72;;;19.80;72.70;;;;;;5033413;28;20046;-76
2022/06/05 06:55:56;;;;;;;4.93;3.50;;;20.00;73.10;;;;;;5016011;28;20172;-76
2022/06/05 06:58:22;;;;;;;5.68;3.70;;;20.30;72.80;;;;;;5002769;28;20037;-76
2022/06/05 07:00:48;;;;;;;5.32;3.63;;;20.70;72.30;;;;;;5005344;28;20597;-76
2022/06/05 07:03:15;;;;;;;6.22;3.28;;;21.00;71.80;;;;;;4988892;28;20037;-76
2022/06/05 07:05:41;;;;;;;4.13;2.83;;;21.30;71.60;;;;;;5000111;28;20030;-76
2022/06/05 07:08:09;;;;;;;6.95;3.85;;;21.50;71.20;;;;;;5003363;28;20097;-76
2022/06/05 07:10:36;;;;;;;5.70;3.40;;;21.70;70.00;;;;;;5003035;28;20406;-77
2022/06/05 07:13:02;;;;;;;5.20;3.20;;;21.50;70.00;;;;;;5032237;28;20030;-77
2022/06/05 07:15:33;;;;;;;5.55;3.47;;;21.20;70.40;;;;;;5005385;28;20286;-77
2022/06/05 07:18:05;;;;;;;3.88;3.17;;;20.90;70.40;;;;;;5018762;28;20041;-76
2022/06/05 07:20:33;;;;;;;8.35;3.88;;;20.60;71.10;;;;;;5002613;28;20501;-76
2022/06/05 07:22:59;;;;;;;7.88;3.80;;;20.50;71.80;;;;;;5002700;28;20041;-76
2022/06/05 07:25:25;;;;;;;6.80;2.80;;;20.10;72.10;;;;;;5001831;28;20422;-76
2022/06/05 07:27:51;;;;;;;6.68;3.15;;;20.10;72.70;;;;;;5000563;28;20034;-77
2022/06/05 07:30:17;;;;;;;3.92;3.58;;;19.90;73.90;;;;;;5000894;28;20038;-76
2022/06/05 07:32:43;;;;;;;3.47;3.17;;;19.80;74.50;;;;;;4987744;28;20507;-76
2022/06/05 07:35:12;;;;;;;4.35;2.90;;;19.90;74.40;;;;;;5004585;28;20050;-77
2022/06/05 07:37:38;;;;;;;5.10;3.13;;;19.90;73.90;;;;;;5004700;28;20034;-76
2022/06/05 07:40:05;;;;;;;3.38;3.03;;;19.80;74.10;;;;;;5003164;28;20053;-76
2022/06/05 07:42:31;;;;;;;3.55;2.83;;;19.80;74.60;;;;;;5002972;28;20072;-79
2022/06/05 07:44:57;;;;;;;3.15;2.72;;;19.90;74.30;;;;;;4988361;28;20693;-78
2022/06/05 07:47:23;;;;;;;3.40;3.10;;;19.90;73.40;;;;;;5000346;28;20033;-80
2022/06/05 07:49:49;;;;;;;4.85;3.10;;;19.80;73.70;;;;;;4989985;28;20080;-80
2022/06/05 07:54:59;;;;;;;4.53;3.67;;;20.10;73.40;;;;;;5002189;28;20100;-78
2022/06/05 07:57:25;;;;;;;5.13;3.45;;;20.20;72.60;;;;;;5002688;28;20041;-78
2022/06/05 07:59:51;;;;;;;6.82;3.40;;;20.20;72.60;;;;;;5002888;28;20061;-78
2022/06/05 08:02:20;;;;;;;3.97;3.30;;;20.10;72.30;;;;;;5005099;28;20358;-77
2022/06/05 08:04:48;;;;;;;5.35;3.47;;;20.10;72.40;;;;;;5019368;28;20034;-77
2022/06/05 08:07:18;;;;;;;5.57;3.13;;;20.00;71.90;;;;;;4999886;28;20077;-78
2022/06/05 08:09:45;;;;;;;6.55;3.38;;;20.20;72.40;;;;;;5018296;28;20042;-77
2022/06/05 08:12:14;;;;;;;4.70;2.92;;;20.30;71.90;;;;;;5001314;28;20076;-77
2022/06/05 08:14:41;;;;;;;5.75;3.08;;;20.50;72.30;;;;;;4988074;28;20088;-78
2022/06/05 08:17:12;;;;;;;4.30;2.97;;;20.50;71.60;;;;;;5001701;28;20659;-78
2022/06/05 08:19:40;;;;;;;3.00;2.60;;;20.60;71.00;;;;;;5035117;28;20086;-78
2022/06/05 08:22:08;;;;;;;2.92;2.67;;;20.50;70.90;;;;;;5016256;28;20069;-79
2022/06/05 08:24:34;;;;;;;6.10;3.05;;;20.60;70.40;;;;;;5005348;28;20042;-79
2022/06/05 08:27:01;;;;;;;2.90;2.70;;;20.70;70.20;;;;;;5009636;28;20076;-79
2022/06/05 08:29:27;;;;;;;4.03;2.20;;;20.70;69.80;;;;;;5002661;28;20042;-78
2022/06/05 08:31:53;;;;;;;2.70;2.50;;;20.90;70.40;;;;;;5000242;28;20087;-77
2022/06/05 08:34:20;;;;;;;2.53;2.30;;;20.90;69.90;;;;;;4987393;28;20038;-77
2022/06/05 08:36:46;;;;;;;3.00;2.38;;;21.00;70.10;;;;;;5016503;28;20039;-77
2022/06/05 08:42:19;;;;;;;4.43;2.23;;;21.10;68.50;;;;;;5034664;28;20053;-77
2022/06/05 08:45:08;;;;;;;3.67;2.38;;;20.90;68.10;;;;;;5001769;28;20044;-74
2022/06/05 08:47:41;;;;;;;6.20;2.88;;;20.80;68.10;;;;;;4996216;28;20041;-75
2022/06/05 08:50:35;;;;;;;4.30;2.83;;;20.70;68.80;;;;;;5016270;28;20128;-75
2022/06/05 08:53:18;;;;;;;2.90;2.50;;;20.60;67.90;;;;;;5000029;28;20039;-76
2022/06/05 08:55:46;;;;;;;2.50;2.30;;;20.40;69.40;;;;;;4987834;28;20034;-77
2022/06/05 08:58:36;;;;;;;2.75;2.45;;;20.40;70.80;;;;;;5000507;28;20143;-77
2022/06/05 09:01:31;;;;;;;8.63;2.75;;;20.20;71.70;;;;;;5001278;28;20412;-76
2022/06/05 09:04:15;;;;;;;5.72;2.47;;;20.10;72.70;;;;;;5032817;28;20038;-80
2022/06/05 09:06:46;;;;;;;4.82;2.28;;;20.10;73.80;;;;;;4999696;28;20100;-78
2022/06/05 09:09:25;;;;;;;2.10;1.85;;;20.20;74.80;;;;;;4998771;28;20037;-76
2022/06/05 09:11:55;;;;;;;3.05;2.20;;;20.40;74.30;;;;;;5000662;28;20021;-80
2022/06/05 09:14:34;;;;;;;2.63;2.38;;;20.40;73.10;;;;;;4998399;28;20031;-78
2022/06/05 09:17:09;;;;;;;3.05;2.75;;;20.20;72.80;;;;;;4999154;28;20027;-76
2022/06/05 09:19:36;;;;;;;3.42;2.40;;;20.20;72.70;;;;;;4998718;28;20037;-78
2022/06/05 09:22:18;;;;;;;4.00;2.40;;;20.20;72.30;;;;;;4998500;28;20714;-78
2022/06/05 09:25:13;;;;;;;3.20;2.55;;;20.20;72.00;;;;;;4999363;28;20425;-80
2022/06/05 09:28:03;;;;;;;7.68;2.65;;;20.10;71.60;;;;;;4999799;28;20042;-78
2022/06/05 09:30:43;;;;;;;4.82;2.53;;;20.10;71.80;;;;;;5000347;28;20042;-80
2022/06/05 09:33:39;;;;;;;3.90;2.40;;;20.00;72.50;;;;;;5000138;28;20377;-80
2022/06/05 09:36:09;;;;;;;3.50;2.35;;;19.90;72.70;;;;;;4996562;28;20670;-80
2022/06/05 09:38:43;;;;;;;3.00;2.70;;;19.80;72.50;;;;;;5004709;28;20124;-79
2022/06/05 09:41:12;;;;;;;4.40;3.03;;;19.70;72.50;;;;;;5000015;28;20047;-79
2022/06/05 09:44:30;;;;;;;3.63;2.30;;;19.80;73.00;;;;;;5003512;28;20034;-78
2022/06/05 09:47:02;;;;;;;4.85;2.13;;;19.70;73.10;;;;;;4963618;28;20398;-80
2022/06/05 09:49:39;;;;;;;2.53;2.10;;;19.80;72.90;;;;;;4960062;28;20187;-80
2022/06/05 09:52:20;;;;;;;10.23;2.40;;;19.90;72.30;;;;;;4965137;28;20581;-78
2022/06/05 09:54:55;;;;;;;2.47;2.00;;;19.90;71.70;;;;;;4950444;28;20043;-82
2022/06/05 10:00:28;;;;;;;3.20;2.38;;;19.90;71.40;;;;;;4950819;28;20512;-81
2022/06/05 10:03:03;;;;;;;1.83;1.73;;;19.70;71.50;;;;;;4966093;28;20088;-80
2022/06/05 10:05:40;;;;;;;2.63;2.08;;;19.70;71.60;;;;;;4964255;28;20045;-79
2022/06/05 10:08:20;;;;;;;2.67;1.80;;;19.70;71.40;;;;;;4964715;28;20589;-80
2022/06/05 10:10:48;;;;;;;3.80;1.98;;;19.70;71.50;;;;;;4965649;28;20415;-79
2022/06/05 10:13:38;;;;;;;1.77;1.60;;;19.70;70.40;;;;;;4950627;28;20031;-80
2022/06/05 10:16:10;;;;;;;2.05;1.67;;;19.80;71.30;;;;;;4960193;28;20409;-77
2022/06/05 10:18:57;;;;;;;4.50;1.90;;;19.70;69.60;;;;;;4934354;28;20541;-79
2022/06/05 10:21:36;;;;;;;3.70;1.80;;;19.70;70.30;;;;;;4955351;28;20410;-77
2022/06/05 10:24:38;;;;;;;4.20;2.00;;;19.90;70.50;;;;;;5002167;28;20088;-77
2022/06/05 10:27:05;;;;;;;4.57;1.90;;;20.00;70.40;;;;;;5003591;28;20069;-78
2022/06/05 10:29:39;;;;;;;2.42;1.90;;;19.90;70.10;;;;;;5035134;28;20371;-77
2022/06/05 10:32:46;;;;;;;1.92;1.80;;;19.80;70.10;;;;;;5001155;28;20088;-78
2022/06/05 10:35:30;;;;;;;3.38;1.70;;;19.70;70.40;;;;;;4982738;28;20035;-78
2022/06/05 10:38:34;;;;;;;1.88;1.67;;;19.90;68.60;;;;;;4995448;28;20564;-77
2022/06/05 10:41:18;;;;;;;3.33;1.55;;;19.90;69.10;;;;;;4983660;28;21932;-76
2022/06/05 10:44:03;;;;;;;2.45;1.58;;;19.90;69.60;;;;;;4988123;28;20115;-77
2022/06/05 10:46:31;;;;;;;4.03;1.60;;;19.90;69.10;;;;;;4989627;28;20042;-78
2022/06/05 10:49:14;;;;;;;1.70;1.52;;;19.90;69.10;;;;;;4999054;28;20573;-77
2022/06/05 10:51:57;;;;;;;2.88;1.55;;;20.00;69.10;;;;;;5001530;28;20729;-76
2022/06/05 10:54:46;;;;;;;2.90;1.42;;;20.10;68.40;;;;;;5001564;28;20030;-75
2022/06/05 10:57:16;;;;;;;3.17;1.52;;;20.00;68.50;;;;;;4996567;28;20140;-78
2022/06/05 10:59:54;;;;;;;1.42;1.27;;;20.00;67.90;;;;;;5007077;28;20034;-77
2022/06/05 11:02:51;;;;;;;3.03;1.27;;;19.90;66.30;;;;;;5003445;28;20037;-77
2022/06/05 11:05:36;;;;;;;1.75;1.05;;;19.90;66.60;;;;;;5001052;28;20113;-75
2022/06/05 11:08:16;;;;;;;3.03;0.90;;;19.90;66.40;;;;;;4998255;28;20079;-74
2022/06/05 11:14:00;;;;;;;2.85;1.10;;;19.90;67.20;;;;;;5022705;28;20033;-74
2022/06/05 11:16:40;;;;;;;1.25;0.95;;;19.90;66.70;;;;;;5023581;28;20045;-74
2022/06/05 11:19:32;;;;;;;1.70;0.88;;;19.90;66.80;;;;;;5021896;28;20040;-74
2022/06/05 11:22:01;;;;;;;0.73;0.73;;;19.90;66.10;;;;;;5022776;28;20151;-74
2022/06/05 11:24:33;;;;;;;1.08;1.02;;;19.90;66.30;;;;;;5022033;28;20116;-75
2022/06/05 11:27:09;;;;;;;1.95;0.77;;;20.00;65.90;;;;;;5023389;28;20038;-76
2022/06/05 11:29:55;;;;;;;1.05;1.00;;;20.00;66.70;;;;;;5023861;28;20618;-76
2022/06/05 11:32:44;;;;;;;1.58;1.20;;;20.10;67.20;;;;;;5055364;28;20061;-76
2022/06/05 11:35:29;;;;;;;1.77;0.88;;;20.10;67.20;;;;;;5022176;28;20503;-76
2022/06/05 11:37:58;;;;;;;1.77;1.02;;;20.20;66.60;;;;;;5022795;28;20067;-74
2022/06/05 11:40:47;;;;;;;2.85;1.00;;;20.20;65.50;;;;;;5023889;28;20152;-84
2022/06/05 11:43:35;;;;;;;1.45;1.00;;;20.10;66.30;;;;;;5039780;28;20405;-76
2022/06/05 11:46:09;;;;;;;2.15;1.10;;;20.10;68.10;;;;;;5024492;28;20513;-79
2022/06/05 11:48:51;;;;;;;2.45;1.40;;;20.10;68.80;;;;;;5008816;28;20037;-78
2022/06/05 11:51:22;;;;;;;3.58;1.63;;;20.10;69.60;;;;;;5020535;28;20029;-75
2022/06/05 11:54:00;;;;;;;1.20;1.10;;;20.00;69.50;;;;;;5023627;28;20040;-76
2022/06/05 11:56:45;;;;;;;1.80;1.50;;;20.00;69.30;;;;;;5021719;28;20082;-77
2022/06/05 11:59:27;;;;;;;8.15;1.60;;;19.90;69.00;;;;;;5019910;28;20064;-79
2022/06/05 12:02:35;;;;;;;3.22;1.40;;;19.90;69.50;;;;;;5022090;28;20133;-78
2022/06/05 12:05:22;;;;;;;2.25;1.70;;;20.00;68.60;;;;;;4965684;28;20509;-77
2022/06/05 12:07:49;;;;;;;3.25;1.80;;;19.90;67.90;;;;;;4961167;28;20486;-76
2022/06/05 12:10:18;;;;;;;2.42;1.40;;;19.90;68.40;;;;;;4959790;28;21018;-75
2022/06/05 12:12:50;;;;;;;3.90;1.70;;;20.00;68.90;;;;;;4960682;28;20037;-76
2022/06/05 12:15:33;;;;;;;1.75;1.63;;;20.10;68.70;;;;;;4960888;28;20039;-77
2022/06/05 12:18:22;;;;;;;1.70;1.60;;;20.20;67.00;;;;;;4949061;28;20509;-77
2022/06/05 12:20:54;;;;;;;1.92;1.52;;;20.10;67.00;;;;;;4928121;28;20138;-76
2022/06/05 12:23:33;;;;;;;5.25;2.08;;;20.10;66.70;;;;;;4959522;28;20502;-75
2022/06/05 12:26:06;;;;;;;3.45;1.90;;;20.10;66.90;;;;;;4958850;28;20260;-75
2022/06/05 12:28:49;;;;;;;2.20;2.00;;;20.20;67.20;;;;;;4946100;28;20049;-79
2022/06/05 12:31:25;;;;;;;2.17;1.67;;;20.10;65.70;;;;;;4966982;28;20039;-76
2022/06/05 12:33:56;;;;;;;4.60;2.15;;;20.10;65.60;;;;;;4969077;28;20038;-75
2022/06/05 12:36:28;;;;;;;3.83;1.85;;;20.10;65.90;;;;;;4952716;28;20633;-76
2022/06/05 12:39:18;;;;;;;3.97;1.85;;;20.20;66.20;;;;;;4967119;28;20038;-76
2022/06/05 12:41:59;;;;;;;4.13;1.83;;;20.20;66.30;;;;;;4988977;28;20033;-75
2022/06/05 12:44:29;;;;;;;2.35;1.80;;;20.20;65.20;;;;;;5009196;28;20042;-75
2022/06/05 12:47:15;;;;;;;2.85;1.70;;;20.10;65.20;;;;;;5011850;28;20133;-76
2022/06/05 12:49:56;;;;;;;2.97;2.50;;;20.10;65.60;;;;;;5006218;28;21232;-76
2022/06/05 12:52:31;;;;;;;2.35;2.10;;;19.90;65.70;;;;;;5002194;28;20034;-75
2022/06/05 12:55:18;;;;;;;2.83;2.00;;;20.10;65.90;;;;;;5004130;28;20034;-75
2022/06/05 12:58:02;;;;;;;3.80;1.92;;;20.10;64.20;;;;;;5031184;28;20175;-79
2022/06/05 13:01:00;;;;;;;3.65;1.70;;;20.10;64.70;;;;;;5003453;28;20030;-77
2022/06/05 13:04:02;;;;;;;4.45;2.30;;;20.10;65.30;;;;;;5002076;28;20041;-75
2022/06/05 13:07:00;;;;;;;4.35;2.25;;;20.30;65.70;;;;;;5000153;28;20038;-76
2022/06/05 13:09:41;;;;;;;3.63;1.80;;;20.30;65.40;;;;;;4999852;28;20489;-75
2022/06/05 13:12:34;;;;;;;2.15;1.90;;;20.40;64.40;;;;;;4999328;28;20031;-76
2022/06/05 13:15:10;;;;;;;4.72;1.70;;;20.40;64.40;;;;;;4998194;28;20057;-76
2022/06/05 13:18:17;;;;;;;3.55;2.03;;;20.40;64.20;;;;;;5001292;28;20041;-76
2022/06/05 13:21:04;;;;;;;3.08;1.80;;;20.50;63.10;;;;;;5021111;28;20075;-77
2022/06/05 13:23:38;;;;;;;2.38;1.52;;;20.40;60.70;;;;;;5022750;28;20026;-76
2022/06/05 13:26:16;;;;;;;1.93;1.83;;;20.20;60.40;;;;;;5037568;28;20425;-76
2022/06/05 13:29:14;;;;;;;2.60;2.08;;;20.20;62.20;;;;;;5022377;28;21475;-75
2022/06/05 13:31:45;;;;;;;5.57;2.30;;;20.30;63.70;;;;;;5009361;28;20033;-76